sensor_id;sensor_type;location;lat;lon;timestamp;pressure;altitude;pressure_sealevel;temperature;humidity
74637;BME280;63141;54.616;39.754;2023-04-06T00:01:23;100556.44;;;24.98;36.14
74637;BME280;63141;54.616;39.754;2023-04-06T00:04:29;100556.44;;;24.98;35.78
74637;BME280;63141;54.616;39.754;2023-04-06T00:07:31;100555.59;;;24.98;35.82
74637;BME280;63141;54.616;39.754;2023-04-06T00:10:34;100549.41;;;24.97;35.88
74637;BME280;63141;54.616;39.754;2023-04-06T00:13:36;100548.50;;;24.97;35.95
74637;BME280;63141;54.616;39.754;2023-04-06T00:16:40;100551.13;;;24.98;36.12
74637;BME280;63141;54.616;39.754;2023-04-06T00:19:41;100550.25;;;24.98;35.74
74637;BME280;63141;54.616;39.754;2023-04-06T00:22:43;100546.75;;;24.97;35.89
74637;BME280;63141;54.616;39.754;2023-04-06T00:25:45;100549.41;;;24.97;36.20
74637;BME280;63141;54.616;39.754;2023-04-06T00:28:46;100552.97;;;24.96;36.26
74637;BME280;63141;54.616;39.754;2023-04-06T00:31:48;100552.97;;;24.96;36.12
74637;BME280;63141;54.616;39.754;2023-04-06T00:34:49;100552.97;;;24.96;36.05
74637;BME280;63141;54.616;39.754;2023-04-06T00:37:51;100560.06;;;24.97;36.27
74637;BME280;63141;54.616;39.754;2023-04-06T00:40:53;100560.13;;;24.96;35.89
74637;BME280;63141;54.616;39.754;2023-04-06T00:43:54;100558.31;;;24.96;35.88
74637;BME280;63141;54.616;39.754;2023-04-06T00:46:56;100561.94;;;24.95;36.19
74637;BME280;63141;54.616;39.754;2023-04-06T00:49:57;100555.75;;;24.95;35.93
74637;BME280;63141;54.616;39.754;2023-04-06T00:52:59;100561.94;;;24.95;35.98
74637;BME280;63141;54.616;39.754;2023-04-06T00:56:02;100556.59;;;24.95;36.06
74637;BME280;63141;54.616;39.754;2023-04-06T00:59:10;100550.41;;;24.95;35.86
74637;BME280;63141;54.616;39.754;2023-04-06T01:02:12;100554.84;;;24.94;36.09
74637;BME280;63141;54.616;39.754;2023-04-06T01:05:24;100550.41;;;24.95;36.23
74637;BME280;63141;54.616;39.754;2023-04-06T01:08:29;100548.66;;;24.94;36.30
74637;BME280;63141;54.616;39.754;2023-04-06T01:11:44;100554.84;;;24.94;35.93
74637;BME280;63141;54.616;39.754;2023-04-06T01:14:50;100551.31;;;24.94;35.93
74637;BME280;63141;54.616;39.754;2023-04-06T01:17:52;100554.00;;;24.94;35.93
74637;BME280;63141;54.616;39.754;2023-04-06T01:20:54;100554.00;;;24.94;35.84
74637;BME280;63141;54.616;39.754;2023-04-06T01:23:56;100547.81;;;24.93;36.03
74637;BME280;63141;54.616;39.754;2023-04-06T01:27:04;100551.38;;;24.92;36.00
74637;BME280;63141;54.616;39.754;2023-04-06T01:30:38;100542.47;;;24.93;36.04
74637;BME280;63141;54.616;39.754;2023-04-06T01:33:55;100551.38;;;24.92;36.15
74637;BME280;63141;54.616;39.754;2023-04-06T01:36:59;100551.38;;;24.92;36.04
74637;BME280;63141;54.616;39.754;2023-04-06T01:40:05;100550.47;;;24.93;36.03
74637;BME280;63141;54.616;39.754;2023-04-06T01:43:21;100549.66;;;24.91;35.77
74637;BME280;63141;54.616;39.754;2023-04-06T01:46:43;100549.66;;;24.91;36.24
74637;BME280;63141;54.616;39.754;2023-04-06T01:49:46;100555.84;;;24.92;36.14
74637;BME280;63141;54.616;39.754;2023-04-06T01:52:52;100555.00;;;24.91;35.76
74637;BME280;63141;54.616;39.754;2023-04-06T01:55:54;100553.28;;;24.90;36.00
74637;BME280;63141;54.616;39.754;2023-04-06T01:59:06;100549.66;;;24.91;35.87
74637;BME280;63141;54.616;39.754;2023-04-06T02:02:13;100556.81;;;24.91;36.14
74637;BME280;63141;54.616;39.754;2023-04-06T02:05:31;100553.28;;;24.90;36.25
74637;BME280;63141;54.616;39.754;2023-04-06T02:08:35;100555.94;;;24.90;36.13
74637;BME280;63141;54.616;39.754;2023-04-06T02:11:36;100556.88;;;24.89;35.95
74637;BME280;63141;54.616;39.754;2023-04-06T02:14:38;100553.28;;;24.90;35.88
74637;BME280;63141;54.616;39.754;2023-04-06T02:17:40;100562.13;;;24.91;36.05
74637;BME280;63141;54.616;39.754;2023-04-06T02:20:42;100577.16;;;24.92;36.09
74637;BME280;63141;54.616;39.754;2023-04-06T02:23:43;100569.28;;;24.90;36.35
74637;BME280;63141;54.616;39.754;2023-04-06T02:26:45;100569.28;;;24.90;35.96
74637;BME280;63141;54.616;39.754;2023-04-06T02:29:47;100574.59;;;24.90;36.36
74637;BME280;63141;54.616;39.754;2023-04-06T02:32:50;100582.59;;;24.90;36.08
74637;BME280;63141;54.616;39.754;2023-04-06T02:35:52;100583.50;;;24.89;35.98
74637;BME280;63141;54.616;39.754;2023-04-06T02:38:53;100585.25;;;24.90;36.10
74637;BME280;63141;54.616;39.754;2023-04-06T02:41:54;100585.25;;;24.90;36.15
74637;BME280;63141;54.616;39.754;2023-04-06T02:44:59;100584.38;;;24.90;36.01
74637;BME280;63141;54.616;39.754;2023-04-06T02:48:05;100587.13;;;24.88;35.77
74637;BME280;63141;54.616;39.754;2023-04-06T02:51:07;100585.25;;;24.90;36.31
74637;BME280;63141;54.616;39.754;2023-04-06T02:54:09;100587.13;;;24.88;36.10
74637;BME280;63141;54.616;39.754;2023-04-06T02:57:11;100599.50;;;24.89;36.31
74637;BME280;63141;54.616;39.754;2023-04-06T03:00:19;100603.97;;;24.88;36.01
74637;BME280;63141;54.616;39.754;2023-04-06T03:03:22;100611.00;;;24.90;36.15
74637;BME280;63141;54.616;39.754;2023-04-06T03:06:26;100603.09;;;24.88;35.96
74637;BME280;63141;54.616;39.754;2023-04-06T03:09:32;100609.28;;;24.88;36.19
74637;BME280;63141;54.616;39.754;2023-04-06T03:12:33;100608.44;;;24.88;36.00
74637;BME280;63141;54.616;39.754;2023-04-06T03:15:51;100608.44;;;24.88;36.06
74637;BME280;63141;54.616;39.754;2023-04-06T03:18:55;100613.75;;;24.88;36.44
74637;BME280;63141;54.616;39.754;2023-04-06T03:21:57;100608.44;;;24.88;36.49
74637;BME280;63141;54.616;39.754;2023-04-06T03:25:01;100613.75;;;24.88;36.30
74637;BME280;63141;54.616;39.754;2023-04-06T03:28:03;100619.09;;;24.88;36.22
74637;BME280;63141;54.616;39.754;2023-04-06T03:31:12;100620.00;;;24.87;36.00
74637;BME280;63141;54.616;39.754;2023-04-06T03:34:32;100617.34;;;24.87;35.91
74637;BME280;63141;54.616;39.754;2023-04-06T03:37:34;100614.69;;;24.87;35.92
74637;BME280;63141;54.616;39.754;2023-04-06T03:40:37;100619.19;;;24.85;36.03
74637;BME280;63141;54.616;39.754;2023-04-06T03:43:45;100621.34;;;24.77;35.17
74637;BME280;63141;54.616;39.754;2023-04-06T03:46:47;100618.16;;;24.69;34.28
74637;BME280;63141;54.616;39.754;2023-04-06T03:49:48;100623.66;;;24.64;33.74
74637;BME280;63141;54.616;39.754;2023-04-06T03:52:50;100627.59;;;24.55;33.70
74637;BME280;63141;54.616;39.754;2023-04-06T03:55:52;100628.72;;;24.50;33.60
74637;BME280;63141;54.616;39.754;2023-04-06T03:58:56;100630.53;;;24.49;33.39
74637;BME280;63141;54.616;39.754;2023-04-06T04:01:57;100627.88;;;24.49;33.00
74637;BME280;63141;54.616;39.754;2023-04-06T04:05:04;100628.72;;;24.50;33.38
74637;BME280;63141;54.616;39.754;2023-04-06T04:08:06;100627.94;;;24.46;32.80
74637;BME280;63141;54.616;39.754;2023-04-06T04:11:07;100640.44;;;24.44;32.80
74637;BME280;63141;54.616;39.754;2023-04-06T04:14:10;100636.13;;;24.41;32.68
74637;BME280;63141;54.616;39.754;2023-04-06T04:17:14;100637.13;;;24.39;32.45
74637;BME280;63141;54.616;39.754;2023-04-06T04:20:22;100640.72;;;24.38;31.98
74637;BME280;63141;54.616;39.754;2023-04-06T04:23:24;100635.66;;;24.32;32.25
74637;BME280;63141;54.616;39.754;2023-04-06T04:26:31;100640.13;;;24.31;32.06
74637;BME280;63141;54.616;39.754;2023-04-06T04:29:33;100645.50;;;24.30;31.66
74637;BME280;63141;54.616;39.754;2023-04-06T04:32:38;100638.38;;;24.30;31.92
74637;BME280;63141;54.616;39.754;2023-04-06T04:35:43;100639.25;;;24.31;31.49
74637;BME280;63141;54.616;39.754;2023-04-06T04:38:50;100644.56;;;24.31;32.00
74637;BME280;63141;54.616;39.754;2023-04-06T04:41:58;100647.09;;;24.34;31.61
74637;BME280;63141;54.616;39.754;2023-04-06T04:45:07;100648.81;;;24.35;31.74
74637;BME280;63141;54.616;39.754;2023-04-06T04:48:13;100645.25;;;24.36;31.79
74637;BME280;63141;54.616;39.754;2023-04-06T04:51:28;100646.16;;;24.35;31.40
74637;BME280;63141;54.616;39.754;2023-04-06T04:54:43;100645.38;;;24.33;31.55
74637;BME280;63141;54.616;39.754;2023-04-06T04:57:50;100646.28;;;24.32;31.27
74637;BME280;63141;54.616;39.754;2023-04-06T05:01:01;100651.63;;;24.32;31.60
74637;BME280;63141;54.616;39.754;2023-04-06T05:04:05;100650.75;;;24.31;31.70
74637;BME280;63141;54.616;39.754;2023-04-06T05:07:09;100643.69;;;24.30;32.07
74637;BME280;63141;54.616;39.754;2023-04-06T05:10:15;100649.91;;;24.31;31.51
74637;BME280;63141;54.616;39.754;2023-04-06T05:13:26;100655.22;;;24.31;31.83
74637;BME280;63141;54.616;39.754;2023-04-06T05:16:29;100663.22;;;24.31;31.69
74637;BME280;63141;54.616;39.754;2023-04-06T05:19:31;100653.47;;;24.30;31.71
74637;BME280;63141;54.616;39.754;2023-04-06T05:22:33;100659.66;;;24.30;31.81
74637;BME280;63141;54.616;39.754;2023-04-06T05:25:48;100666.78;;;24.30;31.87
74637;BME280;63141;54.616;39.754;2023-04-06T05:28:56;100671.19;;;24.31;31.89
74637;BME280;63141;54.616;39.754;2023-04-06T05:31:59;100670.31;;;24.30;31.93
74637;BME280;63141;54.616;39.754;2023-04-06T05:35:07;100664.13;;;24.30;31.80
74637;BME280;63141;54.616;39.754;2023-04-06T05:38:09;100671.19;;;24.31;31.90
74637;BME280;63141;54.616;39.754;2023-04-06T05:41:28;100662.28;;;24.32;31.88
74637;BME280;63141;54.616;39.754;2023-04-06T05:44:30;100662.28;;;24.32;31.99
74637;BME280;63141;54.616;39.754;2023-04-06T05:47:46;100667.59;;;24.32;31.69
74637;BME280;63141;54.616;39.754;2023-04-06T05:51:04;100666.72;;;24.31;31.74
74637;BME280;63141;54.616;39.754;2023-04-06T05:54:21;100664.03;;;24.33;31.60
74637;BME280;63141;54.616;39.754;2023-04-06T05:57:38;100667.53;;;24.33;31.42
74637;BME280;63141;54.616;39.754;2023-04-06T06:01:00;100672.78;;;24.35;31.10
74637;BME280;63141;54.616;39.754;2023-04-06T06:04:19;100675.53;;;24.33;31.83
74637;BME280;63141;54.616;39.754;2023-04-06T06:07:32;100676.38;;;24.34;31.80
74637;BME280;63141;54.616;39.754;2023-04-06T06:10:38;100672.78;;;24.35;31.39
74637;BME280;63141;54.616;39.754;2023-04-06T06:13:44;100677.19;;;24.36;31.71
74637;BME280;63141;54.616;39.754;2023-04-06T06:16:45;100672.69;;;24.38;31.24
74637;BME280;63141;54.616;39.754;2023-04-06T06:19:51;100669.06;;;24.39;31.63
74637;BME280;63141;54.616;39.754;2023-04-06T06:22:58;100667.25;;;24.39;31.19
74637;BME280;63141;54.616;39.754;2023-04-06T06:26:03;100669.94;;;24.39;31.21
74637;BME280;63141;54.616;39.754;2023-04-06T06:29:10;100672.53;;;24.41;31.32
74637;BME280;63141;54.616;39.754;2023-04-06T06:32:13;100685.78;;;24.42;31.33
74637;BME280;63141;54.616;39.754;2023-04-06T06:35:17;100690.13;;;24.45;30.88
74637;BME280;63141;54.616;39.754;2023-04-06T06:38:21;100682.09;;;24.46;30.65
74637;BME280;63141;54.616;39.754;2023-04-06T06:41:22;100695.34;;;24.48;30.82
74637;BME280;63141;54.616;39.754;2023-04-06T06:44:24;100686.44;;;24.49;30.49
74637;BME280;63141;54.616;39.754;2023-04-06T06:47:29;100681.13;;;24.49;30.97
74637;BME280;63141;54.616;39.754;2023-04-06T06:50:36;100681.97;;;24.50;30.12
74637;BME280;63141;54.616;39.754;2023-04-06T06:53:55;100684.50;;;24.53;30.03
74637;BME280;63141;54.616;39.754;2023-04-06T06:57:02;100686.16;;;24.55;30.52
74637;BME280;63141;54.616;39.754;2023-04-06T07:00:15;100686.25;;;24.54;30.20
74637;BME280;63141;54.616;39.754;2023-04-06T07:03:21;100687.13;;;24.54;30.63
74637;BME280;63141;54.616;39.754;2023-04-06T07:06:37;100684.44;;;24.54;29.97
74637;BME280;63141;54.616;39.754;2023-04-06T07:09:41;100689.78;;;24.54;30.31
74637;BME280;63141;54.616;39.754;2023-04-06T07:12:57;100679.25;;;24.51;30.34
74637;BME280;63141;54.616;39.754;2023-04-06T07:16:10;100684.69;;;24.48;30.30
74637;BME280;63141;54.616;39.754;2023-04-06T07:19:12;100676.72;;;24.48;30.75
74637;BME280;63141;54.616;39.754;2023-04-06T07:22:22;100681.13;;;24.49;30.25
74637;BME280;63141;54.616;39.754;2023-04-06T07:25:30;100676.75;;;24.46;30.96
74637;BME280;63141;54.616;39.754;2023-04-06T07:28:39;100687.41;;;24.46;30.78
74637;BME280;63141;54.616;39.754;2023-04-06T07:31:47;100679.47;;;24.45;30.44
74637;BME280;63141;54.616;39.754;2023-04-06T07:34:53;100678.53;;;24.46;30.54
74637;BME280;63141;54.616;39.754;2023-04-06T07:37:55;100677.66;;;24.47;30.57
74637;BME280;63141;54.616;39.754;2023-04-06T07:41:00;100679.38;;;24.48;30.57
74637;BME280;63141;54.616;39.754;2023-04-06T07:44:19;100682.84;;;24.50;30.45
74637;BME280;63141;54.616;39.754;2023-04-06T07:47:27;100681.84;;;24.53;30.71
74637;BME280;63141;54.616;39.754;2023-04-06T07:50:38;100678.28;;;24.54;30.70
74637;BME280;63141;54.616;39.754;2023-04-06T07:53:40;100683.50;;;24.55;30.09
74637;BME280;63141;54.616;39.754;2023-04-06T08:00:19;100670.94;;;24.59;30.05
74637;BME280;63141;54.616;39.754;2023-04-06T08:03:26;100671.81;;;24.59;30.24
74637;BME280;63141;54.616;39.754;2023-04-06T08:06:30;100675.28;;;24.61;29.71
74637;BME280;63141;54.616;39.754;2023-04-06T08:09:32;100669.94;;;24.61;29.66
74637;BME280;63141;54.616;39.754;2023-04-06T08:12:36;100674.34;;;24.62;29.78
74637;BME280;63141;54.616;39.754;2023-04-06T08:15:40;100670.75;;;24.63;29.70
74637;BME280;63141;54.616;39.754;2023-04-06T08:18:48;100673.41;;;24.63;29.70
74637;BME280;63141;54.616;39.754;2023-04-06T08:21:52;100676.06;;;24.63;29.90
74637;BME280;63141;54.616;39.754;2023-04-06T08:25:03;100674.28;;;24.64;29.67
74637;BME280;63141;54.616;39.754;2023-04-06T08:28:14;100675.13;;;24.64;29.52
74637;BME280;63141;54.616;39.754;2023-04-06T08:31:18;100685.78;;;24.64;29.42
74637;BME280;63141;54.616;39.754;2023-04-06T08:34:22;100676.06;;;24.63;29.66
74637;BME280;63141;54.616;39.754;2023-04-06T08:37:35;100676.88;;;24.65;29.26
74637;BME280;63141;54.616;39.754;2023-04-06T08:40:40;100678.59;;;24.66;29.41
74637;BME280;63141;54.616;39.754;2023-04-06T08:44:08;100673.28;;;24.66;29.18
74637;BME280;63141;54.616;39.754;2023-04-06T08:47:18;100671.56;;;24.65;29.55
74637;BME280;63141;54.616;39.754;2023-04-06T08:50:19;100668.91;;;24.65;29.25
74637;BME280;63141;54.616;39.754;2023-04-06T08:53:27;100667.09;;;24.66;29.35
74637;BME280;63141;54.616;39.754;2023-04-06T08:56:31;100666.22;;;24.65;29.28
74637;BME280;63141;54.616;39.754;2023-04-06T08:59:36;100669.69;;;24.67;29.25
74637;BME280;63141;54.616;39.754;2023-04-06T09:02:56;100666.09;;;24.69;29.05
74637;BME280;63141;54.616;39.754;2023-04-06T09:06:03;100666.03;;;24.70;29.16
74637;BME280;63141;54.616;39.754;2023-04-06T09:09:14;100660.72;;;24.70;29.04
74637;BME280;63141;54.616;39.754;2023-04-06T09:12:25;100654.44;;;24.71;29.12
74637;BME280;63141;54.616;39.754;2023-04-06T09:15:30;100651.72;;;24.73;28.84
74637;BME280;63141;54.616;39.754;2023-04-06T09:18:34;100652.56;;;24.73;28.76
74637;BME280;63141;54.616;39.754;2023-04-06T09:22:00;100653.44;;;24.74;28.72
74637;BME280;63141;54.616;39.754;2023-04-06T09:25:19;100653.44;;;24.74;28.72
74637;BME280;63141;54.616;39.754;2023-04-06T09:28:27;100649.00;;;24.74;28.41
74637;BME280;63141;54.616;39.754;2023-04-06T09:31:30;100648.09;;;24.74;28.53
74637;BME280;63141;54.616;39.754;2023-04-06T09:34:43;100639.16;;;24.76;28.31
74637;BME280;63141;54.616;39.754;2023-04-06T09:37:51;100648.00;;;24.77;28.77
74637;BME280;63141;54.616;39.754;2023-04-06T09:41:07;100640.88;;;24.77;28.75
74637;BME280;63141;54.616;39.754;2023-04-06T09:44:12;100633.66;;;24.79;28.76
74637;BME280;63141;54.616;39.754;2023-04-06T09:47:17;100638.06;;;24.80;28.43
74637;BME280;63141;54.616;39.754;2023-04-06T09:50:39;100633.63;;;24.81;28.54
74637;BME280;63141;54.616;39.754;2023-04-06T09:53:42;100636.28;;;24.81;28.31
74637;BME280;63141;54.616;39.754;2023-04-06T09:57:08;100640.66;;;24.82;28.44
74637;BME280;63141;54.616;39.754;2023-04-06T10:00:22;100635.34;;;24.82;27.97
74637;BME280;63141;54.616;39.754;2023-04-06T10:06:50;100637.06;;;24.83;27.98
74637;BME280;63141;54.616;39.754;2023-04-06T10:09:56;100644.13;;;24.84;27.90
74637;BME280;63141;54.616;39.754;2023-04-06T10:13:09;100633.53;;;24.82;28.23
74637;BME280;63141;54.616;39.754;2023-04-06T10:16:14;100641.59;;;24.81;28.16
74637;BME280;63141;54.616;39.754;2023-04-06T10:19:29;100640.66;;;24.82;27.99
74637;BME280;63141;54.616;39.754;2023-04-06T10:22:58;100637.06;;;24.83;28.01
74637;BME280;63141;54.616;39.754;2023-04-06T10:26:14;100645.03;;;24.83;28.12
74637;BME280;63141;54.616;39.754;2023-04-06T10:29:20;100645.03;;;24.83;27.92
74637;BME280;63141;54.616;39.754;2023-04-06T10:32:38;100642.38;;;24.83;28.10
74637;BME280;63141;54.616;39.754;2023-04-06T10:35:49;100647.66;;;24.84;28.04
74637;BME280;63141;54.616;39.754;2023-04-06T10:38:58;100639.66;;;24.84;27.83
74637;BME280;63141;54.616;39.754;2023-04-06T10:42:06;100642.28;;;24.86;27.81
74637;BME280;63141;54.616;39.754;2023-04-06T10:45:24;100641.31;;;24.87;27.56
74637;BME280;63141;54.616;39.754;2023-04-06T10:48:45;100640.41;;;24.88;27.87
74637;BME280;63141;54.616;39.754;2023-04-06T10:51:59;100642.13;;;24.89;28.03
74637;BME280;63141;54.616;39.754;2023-04-06T10:55:08;100637.75;;;24.88;27.93
74637;BME280;63141;54.616;39.754;2023-04-06T10:58:20;100648.31;;;24.90;27.84
74637;BME280;63141;54.616;39.754;2023-04-06T11:01:24;100643.88;;;24.90;27.77
74637;BME280;63141;54.616;39.754;2023-04-06T11:04:40;100649.19;;;24.90;28.03
74637;BME280;63141;54.616;39.754;2023-04-06T11:07:47;100643.88;;;24.90;28.05
74637;BME280;63141;54.616;39.754;2023-04-06T11:11:07;100640.25;;;24.91;27.71
74637;BME280;63141;54.616;39.754;2023-04-06T11:14:16;100641.97;;;24.92;27.94
74637;BME280;63141;54.616;39.754;2023-04-06T11:17:17;100638.44;;;24.92;28.06
74637;BME280;63141;54.616;39.754;2023-04-06T11:20:26;100641.97;;;24.92;28.12
74637;BME280;63141;54.616;39.754;2023-04-06T11:23:30;100645.59;;;24.91;28.09
74637;BME280;63141;54.616;39.754;2023-04-06T11:29:52;100645.44;;;24.94;28.07
74637;BME280;63141;54.616;39.754;2023-04-06T11:33:00;100635.69;;;24.95;28.09
74637;BME280;63141;54.616;39.754;2023-04-06T11:36:08;100643.72;;;24.93;28.02
74637;BME280;63141;54.616;39.754;2023-04-06T11:39:21;100645.44;;;24.94;28.00
74637;BME280;63141;54.616;39.754;2023-04-06T11:42:27;100641.91;;;24.94;27.85
74637;BME280;63141;54.616;39.754;2023-04-06T11:45:45;100641.91;;;24.94;28.14
74637;BME280;63141;54.616;39.754;2023-04-06T11:48:49;100641.13;;;24.92;28.50
74637;BME280;63141;54.616;39.754;2023-04-06T11:51:53;100644.72;;;24.91;28.57
74637;BME280;63141;54.616;39.754;2023-04-06T11:54:55;100631.47;;;24.89;27.99
74637;BME280;63141;54.616;39.754;2023-04-06T11:58:03;100627.09;;;24.88;28.00
74637;BME280;63141;54.616;39.754;2023-04-06T12:01:16;100628.75;;;24.91;28.52
74637;BME280;63141;54.616;39.754;2023-04-06T12:04:23;100629.59;;;24.91;29.52
74637;BME280;63141;54.616;39.754;2023-04-06T12:07:48;100633.97;;;24.92;30.17
74637;BME280;63141;54.616;39.754;2023-04-06T12:11:11;100628.75;;;24.91;31.56
74637;BME280;63141;54.616;39.754;2023-04-06T12:14:18;100633.22;;;24.90;31.28
74637;BME280;63141;54.616;39.754;2023-04-06T12:17:44;100629.66;;;24.90;31.06
74637;BME280;63141;54.616;39.754;2023-04-06T12:21:00;100630.56;;;24.90;30.32
74637;BME280;63141;54.616;39.754;2023-04-06T12:24:10;100630.59;;;24.88;30.43
74637;BME280;63141;54.616;39.754;2023-04-06T12:27:24;100626.28;;;24.86;30.25
74637;BME280;63141;54.616;39.754;2023-04-06T12:30:35;100632.53;;;24.85;29.64
74637;BME280;63141;54.616;39.754;2023-04-06T12:33:36;100625.44;;;24.85;29.38
74637;BME280;63141;54.616;39.754;2023-04-06T12:36:41;100620.94;;;24.86;29.22
74637;BME280;63141;54.616;39.754;2023-04-06T12:39:45;100626.28;;;24.86;29.58
74637;BME280;63141;54.616;39.754;2023-04-06T12:42:47;100629.00;;;24.84;29.29
74637;BME280;63141;54.616;39.754;2023-04-06T12:46:00;100629.00;;;24.84;28.99
74637;BME280;63141;54.616;39.754;2023-04-06T12:49:07;100631.59;;;24.86;28.98
74637;BME280;63141;54.616;39.754;2023-04-06T12:52:14;100629.81;;;24.86;28.83
74637;BME280;63141;54.616;39.754;2023-04-06T12:55:16;100626.28;;;24.86;28.68
74637;BME280;63141;54.616;39.754;2023-04-06T12:58:17;100621.88;;;24.85;28.79
74637;BME280;63141;54.616;39.754;2023-04-06T13:01:22;100622.81;;;24.84;28.58
74637;BME280;63141;54.616;39.754;2023-04-06T13:04:26;100628.28;;;24.81;28.60
74637;BME280;63141;54.616;39.754;2023-04-06T13:07:30;100626.53;;;24.80;28.37
74637;BME280;63141;54.616;39.754;2023-04-06T13:10:48;100617.75;;;24.78;28.21
74637;BME280;63141;54.616;39.754;2023-04-06T13:13:52;100620.50;;;24.76;28.18
74637;BME280;63141;54.616;39.754;2023-04-06T13:17:03;100619.59;;;24.76;27.92
74637;BME280;63141;54.616;39.754;2023-04-06T13:20:22;100617.88;;;24.75;27.82
74637;BME280;63141;54.616;39.754;2023-04-06T13:23:39;100615.28;;;24.73;27.83
74637;BME280;63141;54.616;39.754;2023-04-06T13:26:47;100609.09;;;24.73;27.94
74637;BME280;63141;54.616;39.754;2023-04-06T13:29:55;100613.56;;;24.72;27.87
74637;BME280;63141;54.616;39.754;2023-04-06T13:33:02;100612.72;;;24.72;27.83
74637;BME280;63141;54.616;39.754;2023-04-06T13:36:13;100613.56;;;24.72;28.07
74637;BME280;63141;54.616;39.754;2023-04-06T13:39:35;100606.63;;;24.68;27.85
74637;BME280;63141;54.616;39.754;2023-04-06T13:42:39;100609.25;;;24.70;27.84
74637;BME280;63141;54.616;39.754;2023-04-06T13:45:52;100610.97;;;24.71;27.96
74637;BME280;63141;54.616;39.754;2023-04-06T13:49:04;100615.47;;;24.69;27.90
74637;BME280;63141;54.616;39.754;2023-04-06T13:52:12;100616.44;;;24.67;27.36
74637;BME280;63141;54.616;39.754;2023-04-06T13:55:19;100612.91;;;24.67;27.26
74637;BME280;63141;54.616;39.754;2023-04-06T13:58:24;100611.09;;;24.67;27.25
74637;BME280;63141;54.616;39.754;2023-04-06T14:01:31;100612.97;;;24.65;27.52
74637;BME280;63141;54.616;39.754;2023-04-06T14:04:35;100628.09;;;24.65;27.12
74637;BME280;63141;54.616;39.754;2023-04-06T14:08:03;100615.69;;;24.64;27.06
74637;BME280;63141;54.616;39.754;2023-04-06T14:11:11;100604.97;;;24.65;27.14
74637;BME280;63141;54.616;39.754;2023-04-06T14:14:19;100611.16;;;24.66;27.05
74637;BME280;63141;54.616;39.754;2023-04-06T14:17:23;100614.69;;;24.66;27.00
74637;BME280;63141;54.616;39.754;2023-04-06T14:20:55;100603.09;;;24.67;27.10
74637;BME280;63141;54.616;39.754;2023-04-06T14:24:09;100612.97;;;24.65;27.05
74637;BME280;63141;54.616;39.754;2023-04-06T14:27:32;100609.34;;;24.66;27.19
74637;BME280;63141;54.616;39.754;2023-04-06T14:30:45;100602.31;;;24.65;27.18
74637;BME280;63141;54.616;39.754;2023-04-06T14:34:07;100607.63;;;24.65;27.27
74637;BME280;63141;54.616;39.754;2023-04-06T14:37:15;100611.22;;;24.64;27.29
74637;BME280;63141;54.616;39.754;2023-04-06T14:40:22;100605.88;;;24.64;26.98
74637;BME280;63141;54.616;39.754;2023-04-06T14:43:38;100606.84;;;24.63;26.82
74637;BME280;63141;54.616;39.754;2023-04-06T14:46:42;100609.50;;;24.63;26.66
74637;BME280;63141;54.616;39.754;2023-04-06T14:49:56;100609.50;;;24.63;26.80
74637;BME280;63141;54.616;39.754;2023-04-06T14:52:59;100605.88;;;24.64;26.94
74637;BME280;63141;54.616;39.754;2023-04-06T14:56:05;100606.97;;;24.60;26.76
74637;BME280;63141;54.616;39.754;2023-04-06T14:59:16;100611.41;;;24.60;26.89
74637;BME280;63141;54.616;39.754;2023-04-06T15:02:38;100608.75;;;24.60;26.94
74637;BME280;63141;54.616;39.754;2023-04-06T15:05:49;100613.22;;;24.59;26.60
74637;BME280;63141;54.616;39.754;2023-04-06T15:09:14;100616.88;;;24.57;26.87
74637;BME280;63141;54.616;39.754;2023-04-06T15:12:16;100615.94;;;24.58;26.91
74637;BME280;63141;54.616;39.754;2023-04-06T15:15:29;100622.16;;;24.58;26.42
74637;BME280;63141;54.616;39.754;2023-04-06T15:18:34;100622.94;;;24.60;26.63
74637;BME280;63141;54.616;39.754;2023-04-06T15:21:36;100620.28;;;24.60;26.96
74637;BME280;63141;54.616;39.754;2023-04-06T15:24:52;100628.19;;;24.62;26.57
74637;BME280;63141;54.616;39.754;2023-04-06T15:28:26;100633.53;;;24.62;27.31
74637;BME280;63141;54.616;39.754;2023-04-06T15:31:34;100637.00;;;24.64;27.64
74637;BME280;63141;54.616;39.754;2023-04-06T15:34:44;100636.13;;;24.63;28.28
74637;BME280;63141;54.616;39.754;2023-04-06T15:37:54;100645.06;;;24.62;28.90
74637;BME280;63141;54.616;39.754;2023-04-06T15:40:59;100647.63;;;24.64;29.73
74637;BME280;63141;54.616;39.754;2023-04-06T15:44:06;100647.53;;;24.67;29.98
74637;BME280;63141;54.616;39.754;2023-04-06T15:47:20;100655.53;;;24.67;30.52
74637;BME280;63141;54.616;39.754;2023-04-06T15:50:25;100653.72;;;24.67;30.56
74637;BME280;63141;54.616;39.754;2023-04-06T15:53:32;100658.97;;;24.69;31.09
74637;BME280;63141;54.616;39.754;2023-04-06T15:56:48;100660.75;;;24.69;31.15
74637;BME280;63141;54.616;39.754;2023-04-06T16:00:02;100662.50;;;24.70;30.93
74637;BME280;63141;54.616;39.754;2023-04-06T16:03:24;100663.38;;;24.70;30.56
74637;BME280;63141;54.616;39.754;2023-04-06T16:06:47;100664.38;;;24.67;30.86
74637;BME280;63141;54.616;39.754;2023-04-06T16:10:00;100667.94;;;24.66;30.41
74637;BME280;63141;54.616;39.754;2023-04-06T16:13:05;100671.50;;;24.67;30.58
74637;BME280;63141;54.616;39.754;2023-04-06T16:16:22;100681.25;;;24.66;30.39
74637;BME280;63141;54.616;39.754;2023-04-06T16:19:27;100678.59;;;24.66;30.49
74637;BME280;63141;54.616;39.754;2023-04-06T16:22:34;100687.53;;;24.65;30.52